DAOB

Details ICAO DAOB (TID)
Name BOU CHEKIF
Region Algeria
Timezone Africa/Algiers (UTC+1.0)
Plans Departing 11
Arriving 10
Stats Elevation 3,245 ft / 989 m (AMSL)
Location 35.341136° 1.463147°
Runways 1
Magnetic Variation 0.635° E
Sunrise 2017-12-11 06:54:20 UTC / 2017-12-11 07:54:20 Local
Sunset 2017-12-11 16:43:23 UTC / 2017-12-11 17:43:23 Local
Advertisement - Login to hide

Runways

ID Width Length Bearing (true) Bearing (mag) Surface Threshold Offset Overrun Length
08 148 ft / 45 m 9,810 ft / 2,990 m 81.23° 80.59° Asphalt 0 ft / 0 m 198 ft / 60 m
26 148 ft / 45 m 9,810 ft / 2,990 m 261.25° 260.61° Asphalt 0 ft / 0 m 198 ft / 60 m

Map

Weather


0- 5 10 15 20 25 30 35+ Temperature / ° C

Clouds and Precipitation
Forecast for 2017-12-11 00:00 UTC. Updated an hour ago

Ground ~20,000 ft ~40,000 ft Winds

METAR

DAOB 110000Z 10014KT CAVOK 07/04 Q1014

TAF

TAF DAOB 102300Z 1100/1124 24010KT 9000 FEW023 BECMG 1100/1104 21020KT PROB40 1106/1112 5000 DRSA TEMPO 1107/1112 21020G30KT PROB40 TEMPO 1112/1118 20025G35KT 3000 DRSA FEW026CB BECMG 1118/1122 FEW023CB

Frequencies

Tower 118.10 MHz TIARET TWR
Tower 119.70 MHz TIARET TWR
Warning: Do not use this data for real-world aviation or navigation. No guarantee of current accuracy is given.